RJOA

Hiroshima Airport

Hiroshima, Japan
TAF RJOA 141707Z 1418/1600 32004KT 9999 FEW020 SCT035 BECMG 1423/1501 02007KT
Issued Valid From Valid To
Dec-14 @ 17:07 UTC
(5 hours ago)
Dec-14 @ 18:00 UTC
(4 hours ago)
Dec-16 @ 00:00 UTC
(-1 days ago)
Dec-14 @ 18:00 to Dec-14 @ 23:00
TAF RJOA 141707Z 1418/1600 32004KT 9999 FEW020 SCT035
Wind Visibility Clouds
320° at 4 knots 10,000+ meters
  • Few at 2,000' AGL
  • Scattered at 3,500' AGL
Becoming Dec-14 @ 23:00 to Dec-16 @ 00:00
BECMG 1423/1501 02007KT
Wind Visibility Clouds
20° at 7 knots 10,000+ meters
  • Few at 2,000' AGL
  • Scattered at 3,500' AGL
TAF RJOA 141707Z 1418/1600 32004KT 9999 FEW020 SCT035 BECMG 1423/1501 02007KT
Issued Dec-14 @ 17:07 UTC
(5 hours ago)
Valid From Dec-14 @ 18:00 UTC
(4 hours ago)
Valid To Dec-16 @ 00:00 UTC
(-1 days ago)
Dec-14 @ 18:00 - Dec-14 @ 23:00
Wind Visibility
320° at 4 knots 10,000+ meters
Clouds
  • Few at 2,000' AGL
  • Scattered at 3,500' AGL
Becoming Dec-14 @ 23:00 - Dec-16 @ 00:00
Wind Visibility
20° at 7 knots 10,000+ meters
Clouds
  • Few at 2,000' AGL
  • Scattered at 3,500' AGL